createdAt,value
2022-11-19T00:01:28.366Z,100794.88
2022-11-19T00:03:56.160Z,100807.66
2022-11-19T00:06:26.085Z,100820.44
2022-11-19T00:08:53.799Z,100816.31
2022-11-19T00:11:44.918Z,100818.91
2022-11-19T00:14:14.871Z,100818.13
2022-11-19T00:16:43.855Z,100819.59
2022-11-19T00:19:11.922Z,100823.72
2022-11-19T00:21:39.082Z,100827.94
2022-11-19T00:24:06.961Z,100812.31
2022-11-19T00:26:34.288Z,100825.41
2022-11-19T00:29:01.436Z,100809.94
2022-11-19T00:31:28.696Z,100817.53
2022-11-19T00:33:55.824Z,100822.72
2022-11-19T00:36:23.189Z,100822.47
2022-11-19T00:38:50.678Z,100827.66
2022-11-19T00:41:19.465Z,100833.56
2022-11-19T00:43:47.636Z,100831.66
2022-11-19T00:46:26.017Z,100832.63
2022-11-19T00:48:54.582Z,100832.75
2022-11-19T00:51:26.304Z,100838.09
2022-11-19T00:53:53.718Z,100837.06
2022-11-19T00:56:23.127Z,100850.16
2022-11-19T00:58:51.594Z,100850.94
2022-11-19T01:01:21.140Z,100850.09
2022-11-19T01:03:48.927Z,100856.22
2022-11-19T01:06:19.566Z,100861.19
2022-11-19T01:08:48.591Z,100854.00
2022-11-19T01:11:21.097Z,100868.72
2022-11-19T01:13:48.526Z,100865.06
2022-11-19T01:16:26.039Z,100875.59
2022-11-19T01:18:53.751Z,100881.50
2022-11-19T01:21:22.954Z,100873.75
2022-11-19T01:23:50.638Z,100877.66
2022-11-19T01:26:18.592Z,100884.44
2022-11-19T01:28:46.272Z,100887.88
2022-11-19T01:31:19.534Z,100873.75
2022-11-19T01:33:47.228Z,100891.06
2022-11-19T01:36:18.571Z,100899.22
2022-11-19T01:38:50.915Z,100906.72
2022-11-19T01:41:26.239Z,100898.03
2022-11-19T01:43:58.937Z,100895.72
2022-11-19T01:46:34.848Z,100895.84
2022-11-19T01:49:14.989Z,100891.34
2022-11-19T01:51:51.481Z,100907.34
2022-11-19T01:54:50.604Z,100898.75
2022-11-19T01:57:19.128Z,100898.59
2022-11-19T01:59:51.095Z,100904.56
2022-11-19T02:02:25.415Z,100905.44
2022-11-19T02:04:53.809Z,100896.56
2022-11-19T02:07:26.190Z,100912.16
2022-11-19T02:09:53.357Z,100912.63
2022-11-19T02:12:41.939Z,100932.81
2022-11-19T02:15:36.091Z,100932.72
2022-11-19T02:18:31.212Z,100943.41
2022-11-19T02:21:10.367Z,100935.56
2022-11-19T02:23:48.438Z,100942.44
2022-11-19T02:26:46.433Z,100941.56
2022-11-19T02:29:31.875Z,100953.44
2022-11-19T02:32:17.310Z,100948.44
2022-11-19T02:34:57.699Z,100942.28
2022-11-19T02:37:42.760Z,100942.97
2022-11-19T02:40:20.789Z,100942.72
2022-11-19T02:42:59.281Z,100950.38
2022-11-19T02:45:35.815Z,100945.22
2022-11-19T02:48:17.835Z,100953.25
2022-11-19T02:50:55.033Z,100954.03
2022-11-19T02:53:23.494Z,100953.53
2022-11-19T02:56:09.210Z,100952.09
2022-11-19T02:58:59.542Z,100957.13
2022-11-19T03:01:48.625Z,100956.25
2022-11-19T03:04:30.412Z,100960.31
2022-11-19T03:07:03.494Z,100952.56
2022-11-19T03:09:32.876Z,100960.31
2022-11-19T03:12:07.473Z,100954.06
2022-11-19T03:15:13.031Z,100949.78
2022-11-19T03:18:01.032Z,100955.56
2022-11-19T03:20:41.540Z,100964.03
2022-11-19T03:23:26.103Z,100966.22
2022-11-19T03:26:04.922Z,100970.59
2022-11-19T03:28:37.357Z,100970.19
2022-11-19T03:31:06.693Z,100967.28
2022-11-19T03:33:35.132Z,100963.56
2022-11-19T03:36:08.372Z,100964.03
2022-11-19T03:38:44.249Z,100967.47
2022-11-19T03:41:15.295Z,100971.06
2022-11-19T03:43:45.793Z,100980.03
2022-11-19T03:46:16.897Z,100973.88
2022-11-19T03:48:47.683Z,100969.50
2022-11-19T03:51:40.724Z,100974.31
2022-11-19T03:54:08.669Z,100988.91
2022-11-19T03:56:39.710Z,100980.38
2022-11-19T03:59:10.469Z,100998.22
2022-11-19T04:01:38.291Z,100998.13
2022-11-19T04:04:24.398Z,100998.75
2022-11-19T04:06:51.447Z,100991.53
2022-11-19T04:09:19.183Z,100991.63
2022-11-19T04:14:12.379Z,100996.09
2022-11-19T04:16:39.490Z,101001.97
2022-11-19T04:19:06.529Z,101010.69
2022-11-19T04:21:33.740Z,101013.34
2022-11-19T04:24:00.780Z,101009.72
2022-11-19T04:26:27.884Z,101023.53
2022-11-19T04:28:54.880Z,101027.16
2022-11-19T04:31:21.906Z,101021.78
2022-11-19T04:33:48.928Z,101021.69
2022-11-19T04:36:15.993Z,101026.78
2022-11-19T04:38:43.014Z,101037.06
2022-11-19T04:41:10.075Z,101039.69
2022-11-19T04:43:37.134Z,101036.88
2022-11-19T04:46:04.270Z,101044.25
2022-11-19T04:48:31.317Z,101051.81
2022-11-19T04:50:58.360Z,101062.50
2022-11-19T04:53:25.426Z,101067.31
2022-11-19T04:55:52.390Z,101065.19
2022-11-19T04:58:19.460Z,101064.41
2022-11-19T05:00:48.202Z,101062.47
2022-11-19T05:03:15.276Z,101065.09
2022-11-19T05:05:42.350Z,101066.66
2022-11-19T05:08:09.431Z,101072.47
2022-11-19T05:10:36.417Z,101064.72
2022-11-19T05:13:03.513Z,101060.34
2022-11-19T05:15:30.910Z,101079.25
2022-11-19T05:17:57.950Z,101056.72
2022-11-19T05:20:24.919Z,101065.50
2022-11-19T05:22:51.972Z,101074.31
2022-11-19T05:25:19.478Z,101075.00
2022-11-19T05:27:46.584Z,101087.06
2022-11-19T05:30:14.022Z,101086.97
2022-11-19T05:32:41.041Z,101091.97
2022-11-19T05:35:09.010Z,101090.78
2022-11-19T05:37:36.018Z,101093.84
2022-11-19T05:40:03.792Z,101095.50
2022-11-19T05:42:31.166Z,101102.97
2022-11-19T05:44:58.122Z,101102.97
2022-11-19T05:47:25.145Z,101109.72
2022-11-19T05:49:52.235Z,101110.41
2022-11-19T05:52:19.409Z,101104.53
2022-11-19T05:54:46.413Z,101084.28
2022-11-19T05:57:13.494Z,101116.91
2022-11-19T05:59:43.822Z,101112.50
2022-11-19T06:02:12.083Z,101107.09
2022-11-19T06:04:39.463Z,101116.22
2022-11-19T06:07:07.010Z,101117.88
2022-11-19T06:09:34.247Z,101121.97
2022-11-19T06:12:01.375Z,101121.00
2022-11-19T06:14:28.469Z,101123.56
2022-11-19T06:16:58.069Z,101120.81
2022-11-19T06:19:25.680Z,101123.94
2022-11-19T06:21:53.425Z,101129.72
2022-11-19T06:24:21.149Z,101125.91
2022-11-19T06:26:48.282Z,101140.28
2022-11-19T06:29:17.372Z,101129.22
2022-11-19T06:31:45.565Z,101139.41
2022-11-19T06:34:12.607Z,101127.28
2022-11-19T06:36:43.916Z,101142.72
2022-11-19T06:39:13.143Z,101148.50
2022-11-19T06:41:40.004Z,101146.56
2022-11-19T06:44:06.995Z,101149.88
2022-11-19T06:46:34.099Z,101159.38
2022-11-19T06:49:01.252Z,101143.50
2022-11-19T06:51:28.306Z,101159.38
2022-11-19T06:53:55.338Z,101167.78
2022-11-19T06:56:22.391Z,101168.16
2022-11-19T06:58:49.346Z,101150.50
2022-11-19T07:01:16.561Z,101158.75
2022-11-19T07:03:43.651Z,101158.94
2022-11-19T07:06:10.965Z,101165.91
2022-11-19T07:08:39.340Z,101169.78
2022-11-19T07:11:25.680Z,101184.19
2022-11-19T07:13:57.140Z,101180.34
2022-11-19T07:16:33.812Z,101180.03
2022-11-19T07:19:06.416Z,101180.41
2022-11-19T07:21:34.107Z,101204.06
2022-11-19T07:24:03.328Z,101194.69
2022-11-19T07:26:32.551Z,101208.97
2022-11-19T07:29:04.685Z,101213.06
2022-11-19T07:31:33.306Z,101209.66
2022-11-19T07:34:00.947Z,101209.31
2022-11-19T07:36:27.954Z,101223.59
2022-11-19T07:38:55.057Z,101225.25
2022-11-19T07:41:40.993Z,101220.72
2022-11-19T07:44:08.446Z,101224.72
2022-11-19T07:46:35.743Z,101232.34
2022-11-19T07:49:03.017Z,101230.72
2022-11-19T07:51:30.066Z,101237.44
2022-11-19T07:53:57.138Z,101241.06
2022-11-19T07:56:24.654Z,101236.22
2022-11-19T07:58:51.787Z,101232.03
2022-11-19T08:01:21.463Z,101247.06
2022-11-19T08:03:55.945Z,101245.84
2022-11-19T08:06:25.777Z,101258.00
2022-11-19T08:08:54.527Z,101263.31
2022-11-19T08:11:21.957Z,101268.31
2022-11-19T08:13:49.393Z,101268.97
2022-11-19T08:16:35.969Z,101260.47
2022-11-19T08:19:07.216Z,101271.31
2022-11-19T08:21:34.636Z,101284.25
2022-11-19T08:24:02.210Z,101269.34
2022-11-19T08:26:29.786Z,101271.66
2022-11-19T08:28:56.867Z,101269.09
2022-11-19T08:31:23.977Z,101276.53
2022-11-19T08:33:50.935Z,101280.28
2022-11-19T08:36:18.350Z,101277.63
2022-11-19T08:38:45.713Z,101280.72
2022-11-19T08:41:31.230Z,101291.78
2022-11-19T08:44:01.987Z,101281.47
2022-11-19T08:46:29.003Z,101290.88
2022-11-19T08:48:56.086Z,101292.66
2022-11-19T08:51:23.014Z,101283.38
2022-11-19T08:53:52.629Z,101280.50
2022-11-19T08:56:20.171Z,101292.66
2022-11-19T08:58:47.197Z,101297.41
2022-11-19T09:01:16.872Z,101296.63
2022-11-19T09:03:44.546Z,101299.16
2022-11-19T09:06:12.530Z,101303.38
2022-11-19T09:08:41.049Z,101294.66
2022-11-19T09:11:16.811Z,101298.97
2022-11-19T09:13:44.235Z,101304.81
2022-11-19T09:16:11.999Z,101301.28
2022-11-19T09:18:40.113Z,101305.78
2022-11-19T09:21:09.703Z,101306.25
2022-11-19T09:23:36.912Z,101310.34
2022-11-19T09:26:13.701Z,101316.09
2022-11-19T09:28:41.309Z,101305.25
2022-11-19T09:31:17.153Z,101311.63
2022-11-19T09:33:47.794Z,101308.13
2022-11-19T09:36:16.131Z,101320.94
2022-11-19T09:38:43.370Z,101330.44
2022-11-19T09:41:41.307Z,101327.22
2022-11-19T09:44:17.554Z,101336.16
2022-11-19T09:47:02.900Z,101334.72
2022-11-19T09:49:58.450Z,101341.00
2022-11-19T09:52:28.529Z,101334.06
2022-11-19T09:54:57.247Z,101333.72
2022-11-19T09:57:32.278Z,101334.81
2022-11-19T10:00:01.736Z,101339.88
2022-11-19T10:02:29.560Z,101341.88
2022-11-19T10:04:57.596Z,101342.09
2022-11-19T10:07:35.720Z,101331.91
2022-11-19T10:10:31.044Z,101333.44
2022-11-19T10:13:21.907Z,101345.81
2022-11-19T10:15:52.016Z,101359.97
2022-11-19T10:18:43.482Z,101352.56
2022-11-19T10:21:48.208Z,101347.56
2022-11-19T10:24:36.032Z,101349.19
2022-11-19T10:27:12.411Z,101354.38
2022-11-19T10:29:40.416Z,101347.94
2022-11-19T10:32:42.855Z,101347.38
2022-11-19T10:35:21.389Z,101344.38
2022-11-19T10:37:56.746Z,101343.69
2022-11-19T10:40:28.201Z,101348.44
2022-11-19T10:43:01.357Z,101335.00
2022-11-19T10:45:30.132Z,101343.69
2022-11-19T10:48:16.174Z,101320.13
2022-11-19T10:50:43.162Z,101341.22
2022-11-19T10:53:38.057Z,101341.66
2022-11-19T10:56:10.576Z,101330.34
2022-11-19T10:58:46.835Z,101339.31
2022-11-19T11:01:42.371Z,101336.66
2022-11-19T11:04:20.279Z,101336.84
2022-11-19T11:06:56.041Z,101329.13
2022-11-19T11:09:33.926Z,101341.69
2022-11-19T11:12:35.266Z,101331.50
2022-11-19T11:15:23.861Z,101314.13
2022-11-19T11:18:03.640Z,101328.34
2022-11-19T11:20:31.557Z,101335.22
2022-11-19T11:23:26.089Z,101323.38
2022-11-19T11:26:18.115Z,101323.66
2022-11-19T11:29:08.711Z,101321.22
2022-11-19T11:31:47.220Z,101310.81
2022-11-19T11:34:20.124Z,101316.63
2022-11-19T11:36:47.372Z,101320.06
2022-11-19T11:39:44.490Z,101317.59
2022-11-19T11:42:19.252Z,101313.59
2022-11-19T11:44:53.805Z,101304.38
2022-11-19T11:47:25.635Z,101306.72
2022-11-19T11:50:04.283Z,101301.13
2022-11-19T11:52:39.869Z,101303.28
2022-11-19T11:55:28.917Z,101302.81
2022-11-19T11:57:58.507Z,101310.06
2022-11-19T12:00:42.656Z,101306.13
2022-11-19T12:03:15.759Z,101302.50
2022-11-19T12:06:03.937Z,101302.00
2022-11-19T12:08:39.835Z,101291.13
2022-11-19T12:11:54.443Z,101272.56
2022-11-19T12:14:57.557Z,101281.66
2022-11-19T12:17:43.057Z,101291.38
2022-11-19T12:20:33.764Z,101297.56
2022-11-19T12:23:23.313Z,101291.75
2022-11-19T12:26:02.566Z,101287.72
2022-11-19T12:29:02.854Z,101289.69
2022-11-19T12:31:40.052Z,101294.19
2022-11-19T12:34:25.294Z,101296.16
2022-11-19T12:37:26.610Z,101297.28
2022-11-19T12:40:20.413Z,101294.13
2022-11-19T12:43:09.642Z,101299.22
2022-11-19T12:45:58.169Z,101297.59
2022-11-19T12:48:59.851Z,101306.03
2022-11-19T12:51:45.361Z,101301.00
2022-11-19T12:54:34.521Z,101291.56
2022-11-19T12:57:11.206Z,101307.28
2022-11-19T13:00:08.609Z,101305.69
2022-11-19T13:02:38.836Z,101300.09
2022-11-19T13:05:14.048Z,101307.94
2022-11-19T13:07:56.493Z,101304.69
2022-11-19T13:10:33.335Z,101308.09
2022-11-19T13:13:01.619Z,101307.44
2022-11-19T13:15:39.981Z,101299.06
2022-11-19T13:18:12.206Z,101296.94
2022-11-19T13:21:16.165Z,101305.03
2022-11-19T13:23:46.062Z,101291.50
2022-11-19T13:26:31.102Z,101295.97
2022-11-19T13:29:34.217Z,101296.16
2022-11-19T13:32:10.866Z,101283.47
2022-11-19T13:35:09.445Z,101295.16
2022-11-19T13:37:45.409Z,101293.47
2022-11-19T13:40:23.061Z,101301.75
2022-11-19T13:46:11.435Z,101292.91
2022-11-19T13:48:43.030Z,101293.63
2022-11-19T13:51:24.562Z,101291.56
2022-11-19T13:53:57.256Z,101286.31
2022-11-19T13:56:49.846Z,101290.50
2022-11-19T13:59:25.579Z,101295.34
2022-11-19T14:01:56.152Z,101295.34
2022-11-19T14:04:25.848Z,101289.88
2022-11-19T14:07:16.746Z,101298.22
2022-11-19T14:09:55.384Z,101290.56
2022-11-19T14:12:54.071Z,101297.63
2022-11-19T14:15:49.100Z,101297.88
2022-11-19T14:18:54.703Z,101294.56
2022-11-19T14:21:44.940Z,101290.50
2022-11-19T14:24:45.953Z,101288.31
2022-11-19T14:27:22.823Z,101285.97
2022-11-19T14:29:50.040Z,101301.63
2022-11-19T14:32:19.095Z,101298.56
2022-11-19T14:35:07.541Z,101293.31
2022-11-19T14:37:42.975Z,101290.22
2022-11-19T14:40:14.415Z,101292.34
2022-11-19T14:43:18.342Z,101311.03
2022-11-19T14:46:04.378Z,101303.19
2022-11-19T14:48:54.653Z,101297.44
2022-11-19T14:51:36.636Z,101306.19
2022-11-19T14:54:08.679Z,101312.69
2022-11-19T14:56:37.766Z,101323.56
2022-11-19T14:59:16.760Z,101323.44
2022-11-19T15:01:55.533Z,101331.34
2022-11-19T15:04:28.801Z,101313.22
2022-11-19T15:06:56.589Z,101325.59
2022-11-19T15:10:01.087Z,101317.38
2022-11-19T15:12:43.474Z,101310.63
2022-11-19T15:15:19.396Z,101310.13
2022-11-19T15:18:02.391Z,101318.09
2022-11-19T15:20:51.241Z,101323.38
2022-11-19T15:23:28.764Z,101324.56
2022-11-19T15:26:06.775Z,101317.13
2022-11-19T15:28:48.255Z,101320.38
2022-11-19T15:31:38.476Z,101320.63
2022-11-19T15:34:48.696Z,101317.47
2022-11-19T15:37:41.016Z,101319.72
2022-11-19T15:40:14.189Z,101322.66
2022-11-19T15:42:49.436Z,101324.03
2022-11-19T15:45:20.304Z,101327.72
2022-11-19T15:47:52.812Z,101336.81
2022-11-19T15:50:23.099Z,101331.09
2022-11-19T15:53:24.009Z,101334.34
2022-11-19T15:55:56.355Z,101331.59
2022-11-19T15:58:31.232Z,101324.88
2022-11-19T16:00:58.491Z,101338.63
2022-11-19T16:03:25.851Z,101326.72
2022-11-19T16:06:17.207Z,101330.94
2022-11-19T16:08:46.389Z,101338.13
2022-11-19T16:11:40.605Z,101340.56
2022-11-19T16:14:46.879Z,101323.38
2022-11-19T16:17:43.622Z,101346.47
2022-11-19T16:20:11.141Z,101341.72
2022-11-19T16:22:54.736Z,101343.09
2022-11-19T16:25:25.657Z,101343.22
2022-11-19T16:27:56.981Z,101359.38
2022-11-19T16:30:26.719Z,101350.66
2022-11-19T16:33:00.516Z,101345.91
2022-11-19T16:35:32.367Z,101353.63
2022-11-19T16:38:01.448Z,101337.50
2022-11-19T16:40:49.426Z,101338.94
2022-11-19T16:43:19.255Z,101354.19
2022-11-19T16:45:47.010Z,101352.97
2022-11-19T16:48:39.837Z,101355.88
2022-11-19T16:51:25.420Z,101359.94
2022-11-19T16:53:52.791Z,101350.25
2022-11-19T16:56:19.979Z,101352.88
2022-11-19T16:58:47.303Z,101353.41
2022-11-19T17:01:19.220Z,101358.19
2022-11-19T17:03:46.281Z,101367.25
2022-11-19T17:06:25.581Z,101363.38
2022-11-19T17:09:01.141Z,101370.34
2022-11-19T17:12:10.098Z,101375.41
2022-11-19T17:14:39.751Z,101372.63
2022-11-19T17:17:26.619Z,101379.28
2022-11-19T17:19:53.854Z,101376.50
2022-11-19T17:22:23.481Z,101373.75
2022-11-19T17:24:50.694Z,101376.94
2022-11-19T17:27:37.155Z,101381.81
2022-11-19T17:30:19.768Z,101382.69
2022-11-19T17:32:49.753Z,101370.41
2022-11-19T17:35:34.763Z,101372.19
2022-11-19T17:38:13.736Z,101370.41
2022-11-19T17:41:01.547Z,101368.66
2022-11-19T17:43:56.257Z,101355.47
2022-11-19T17:46:25.917Z,101369.53
2022-11-19T17:48:53.196Z,101370.84
2022-11-19T17:51:25.339Z,101383.78
2022-11-19T17:53:53.205Z,101373.41
2022-11-19T17:56:28.682Z,101384.34
2022-11-19T17:58:56.139Z,101369.28
2022-11-19T18:01:23.285Z,101381.69
2022-11-19T18:03:50.698Z,101376.47
2022-11-19T18:06:18.422Z,101380.78
2022-11-19T18:08:46.250Z,101377.47
2022-11-19T18:11:22.469Z,101378.25
2022-11-19T18:13:55.149Z,101368.19
2022-11-19T18:16:24.625Z,101356.28
2022-11-19T18:18:52.128Z,101361.66
2022-11-19T18:21:21.918Z,101366.00
2022-11-19T18:23:50.937Z,101367.31
2022-11-19T18:26:22.272Z,101367.97
2022-11-19T18:28:49.522Z,101366.97
2022-11-19T18:31:23.158Z,101362.44
2022-11-19T18:33:50.389Z,101380.44
2022-11-19T18:36:18.326Z,101380.84
2022-11-19T18:38:45.745Z,101385.63
2022-11-19T18:41:14.875Z,101369.59
2022-11-19T18:44:01.172Z,101379.88
2022-11-19T18:46:28.322Z,101376.09
2022-11-19T18:48:56.296Z,101370.81
2022-11-19T18:51:25.299Z,101377.06
2022-11-19T18:53:52.333Z,101364.00
2022-11-19T18:56:19.929Z,101364.16
2022-11-19T18:58:47.132Z,101356.19
2022-11-19T19:01:16.280Z,101355.94
2022-11-19T19:03:43.823Z,101357.81
2022-11-19T19:06:11.177Z,101364.31
2022-11-19T19:08:38.469Z,101358.88
2022-11-19T19:11:25.871Z,101372.03
2022-11-19T19:13:53.165Z,101368.03
2022-11-19T19:16:20.314Z,101376.25
2022-11-19T19:18:47.311Z,101376.41
2022-11-19T19:21:22.402Z,101379.69
2022-11-19T19:23:50.231Z,101378.56
2022-11-19T19:26:18.622Z,101378.78
2022-11-19T19:28:51.486Z,101380.00
2022-11-19T19:31:23.136Z,101369.53
2022-11-19T19:33:50.853Z,101383.13
2022-11-19T19:36:20.291Z,101376.84
2022-11-19T19:38:47.359Z,101369.78
2022-11-19T19:41:25.311Z,101371.00
2022-11-19T19:43:53.800Z,101378.50
2022-11-19T19:46:23.464Z,101374.38
2022-11-19T19:48:52.844Z,101373.66
2022-11-19T19:51:21.425Z,101376.84
2022-11-19T19:53:49.302Z,101384.97
2022-11-19T19:56:24.210Z,101378.56
2022-11-19T19:58:51.803Z,101377.13
2022-11-19T20:01:22.939Z,101379.13
2022-11-19T20:03:54.441Z,101376.84
2022-11-19T20:06:23.260Z,101378.78
2022-11-19T20:08:50.766Z,101366.28
2022-11-19T20:11:20.402Z,101376.41
2022-11-19T20:13:48.182Z,101380.88
2022-11-19T20:16:18.677Z,101376.44
2022-11-19T20:18:48.143Z,101369.47
2022-11-19T20:21:25.682Z,101371.78
2022-11-19T20:23:53.632Z,101363.16
2022-11-19T20:26:23.560Z,101370.38
2022-11-19T20:29:02.195Z,101376.44
2022-11-19T20:31:30.654Z,101374.31
2022-11-19T20:34:00.051Z,101385.59
2022-11-19T20:36:29.115Z,101382.03
2022-11-19T20:38:59.357Z,101379.34
2022-11-19T20:41:46.497Z,101385.78
2022-11-19T20:44:22.171Z,101383.63
2022-11-19T20:46:55.127Z,101396.66
2022-11-19T20:49:24.982Z,101381.47
2022-11-19T20:51:53.454Z,101382.06
2022-11-19T20:54:21.620Z,101376.13
2022-11-19T20:56:51.769Z,101384.13
2022-11-19T20:59:20.298Z,101371.72
2022-11-19T21:01:50.765Z,101383.53
2022-11-19T21:04:19.376Z,101382.81
2022-11-19T21:06:47.096Z,101387.63
2022-11-19T21:09:15.760Z,101386.25
2022-11-19T21:11:43.761Z,101389.06
2022-11-19T21:14:11.860Z,101386.91
2022-11-19T21:16:38.912Z,101374.41
2022-11-19T21:19:05.913Z,101379.81
2022-11-19T21:21:33.103Z,101375.13
2022-11-19T21:24:00.112Z,101373.78
2022-11-19T21:26:28.662Z,101371.72
2022-11-19T21:28:58.377Z,101367.53
2022-11-19T21:31:41.645Z,101379.81
2022-11-19T21:34:11.702Z,101362.59
2022-11-19T21:36:40.014Z,101379.31
2022-11-19T21:39:08.058Z,101363.72
2022-11-19T21:41:35.350Z,101367.91
2022-11-19T21:44:03.460Z,101369.44
2022-11-19T21:46:31.125Z,101365.00
2022-11-19T21:48:58.177Z,101360.56
2022-11-19T21:51:25.591Z,101356.91
2022-11-19T21:53:57.297Z,101355.00
2022-11-19T21:56:25.895Z,101356.69
2022-11-19T21:58:53.285Z,101356.53
2022-11-19T22:01:20.954Z,101352.47
2022-11-19T22:03:48.470Z,101347.69
2022-11-19T22:06:15.919Z,101353.00
2022-11-19T22:08:43.633Z,101348.97
2022-11-19T22:11:30.925Z,101359.97
2022-11-19T22:14:02.133Z,101369.50
2022-11-19T22:16:30.515Z,101372.16
2022-11-19T22:18:57.592Z,101373.06
2022-11-19T22:21:25.887Z,101367.13
2022-11-19T22:23:52.876Z,101356.47
2022-11-19T22:26:19.935Z,101371.81
2022-11-19T22:28:47.150Z,101358.00
2022-11-19T22:31:15.437Z,101364.47
2022-11-19T22:33:42.505Z,101353.94
2022-11-19T22:36:11.166Z,101363.69
2022-11-19T22:38:39.339Z,101345.06
2022-11-19T22:41:09.644Z,101357.59
2022-11-19T22:43:37.409Z,101356.09
2022-11-19T22:46:05.386Z,101357.88
2022-11-19T22:48:32.982Z,101363.19
2022-11-19T22:51:05.618Z,101354.69
2022-11-19T22:53:37.140Z,101356.47
2022-11-19T22:56:06.833Z,101346.63
2022-11-19T22:58:34.828Z,101348.50
2022-11-19T23:01:02.666Z,101329.41
2022-11-19T23:03:29.982Z,101333.31
2022-11-19T23:05:59.072Z,101332.19
2022-11-19T23:08:26.445Z,101343.31
2022-11-19T23:10:58.277Z,101335.59
2022-11-19T23:13:32.136Z,101345.84
2022-11-19T23:16:14.788Z,101337.47
2022-11-19T23:18:52.568Z,101322.94
2022-11-19T23:21:25.174Z,101324.69
2022-11-19T23:23:53.085Z,101333.44
2022-11-19T23:26:24.763Z,101338.63
2022-11-19T23:28:52.597Z,101330.28
2022-11-19T23:31:30.472Z,101340.38
2022-11-19T23:33:59.370Z,101345.06
2022-11-19T23:36:33.180Z,101337.09
2022-11-19T23:39:01.166Z,101337.44
2022-11-19T23:41:31.233Z,101337.56
2022-11-19T23:43:58.265Z,101331.00
2022-11-19T23:46:31.795Z,101332.66
2022-11-19T23:49:00.148Z,101326.19
2022-11-19T23:51:32.958Z,101324.81
2022-11-19T23:54:00.107Z,101323.94
2022-11-19T23:56:29.398Z,101305.84
2022-11-19T23:58:56.985Z,101303.19
